createdAt,value
2023-01-23T00:04:03.000Z,3.09
2023-01-23T00:19:06.793Z,3.00
2023-01-23T00:34:13.890Z,3.03
2023-01-23T00:49:18.055Z,2.99
2023-01-23T01:04:21.422Z,3.02
2023-01-23T01:19:24.672Z,2.95
2023-01-23T01:34:27.909Z,2.98
2023-01-23T01:49:33.647Z,2.89
2023-01-23T02:04:42.770Z,3.04
2023-01-23T02:20:08.419Z,3.02
2023-01-23T02:35:26.850Z,2.93
2023-01-23T02:50:31.141Z,2.85
2023-01-23T03:05:34.425Z,2.81
2023-01-23T03:20:41.770Z,2.74
2023-01-23T03:35:44.980Z,2.79
2023-01-23T03:50:48.421Z,2.72
2023-01-23T04:05:58.938Z,2.64
2023-01-23T04:21:02.646Z,2.69
2023-01-23T04:36:07.544Z,2.57
2023-01-23T04:51:11.634Z,2.43
2023-01-23T05:06:14.857Z,2.37
2023-01-23T05:21:19.597Z,2.52
2023-01-23T05:36:22.904Z,2.66
2023-01-23T05:51:31.803Z,2.75
2023-01-23T06:06:35.851Z,2.79
2023-01-23T06:21:39.240Z,2.82
2023-01-23T06:36:42.829Z,2.86
2023-01-23T06:51:46.200Z,2.93
2023-01-23T07:06:49.763Z,2.90
2023-01-23T07:21:54.438Z,2.86
2023-01-23T07:36:57.582Z,2.88
2023-01-23T07:52:00.733Z,3.05
2023-01-23T08:07:04.422Z,3.20
2023-01-23T08:22:07.531Z,3.32
2023-01-23T08:37:10.804Z,3.35
2023-01-23T08:52:13.950Z,3.49
2023-01-23T09:07:17.129Z,3.69
2023-01-23T09:22:20.610Z,3.87
2023-01-23T09:37:23.757Z,3.97
2023-01-23T09:52:34.446Z,4.02
2023-01-23T10:08:25.237Z,4.23
2023-01-23T10:23:49.388Z,4.19
2023-01-23T10:38:52.889Z,4.27
2023-01-23T10:54:33.147Z,4.39
2023-01-23T11:09:53.023Z,4.44
2023-01-23T11:24:56.526Z,4.61
2023-01-23T11:40:04.977Z,4.62
2023-01-23T11:55:48.743Z,4.74
2023-01-23T12:11:12.349Z,4.75
2023-01-23T12:26:22.739Z,4.87
2023-01-23T12:41:38.128Z,4.82
2023-01-23T12:56:42.691Z,4.76
2023-01-23T13:12:24.628Z,4.70
2023-01-23T13:27:42.754Z,4.68
2023-01-23T13:42:46.236Z,4.60
2023-01-23T14:29:01.417Z,4.16
2023-01-23T14:44:05.251Z,3.99
2023-01-23T14:59:27.245Z,3.94
2023-01-23T15:14:36.910Z,3.78
2023-01-23T15:29:40.137Z,3.71
2023-01-23T15:44:43.988Z,3.60
2023-01-23T15:59:48.292Z,3.62
2023-01-23T16:14:51.658Z,3.54
2023-01-23T16:29:55.738Z,3.56
2023-01-23T16:44:58.950Z,3.55
2023-01-23T17:00:03.907Z,3.53
2023-01-23T17:15:07.933Z,3.44
2023-01-23T17:30:23.884Z,3.39
2023-01-23T17:45:28.348Z,3.41
2023-01-23T18:00:31.805Z,3.40
2023-01-23T18:15:41.917Z,3.41
2023-01-23T18:31:00.278Z,3.41
2023-01-23T18:46:11.730Z,3.38
2023-01-23T19:01:35.169Z,3.31
2023-01-23T19:16:45.548Z,3.19
2023-01-23T19:32:04.117Z,3.18
2023-01-23T19:47:08.936Z,3.15
2023-01-23T20:02:19.574Z,3.13
2023-01-23T20:17:23.440Z,3.09
2023-01-23T20:32:35.170Z,3.10
2023-01-23T20:47:41.771Z,3.03
2023-01-23T21:02:46.778Z,2.99
2023-01-23T21:17:55.975Z,3.01
2023-01-23T21:33:06.288Z,2.97
2023-01-23T21:48:14.642Z,2.96
2023-01-23T22:03:17.827Z,2.93
2023-01-23T22:18:21.016Z,2.91
2023-01-23T22:33:30.079Z,2.92
2023-01-23T22:48:52.680Z,2.90
2023-01-23T23:04:00.329Z,2.90
2023-01-23T23:19:04.781Z,2.95
2023-01-23T23:34:08.411Z,2.92
2023-01-23T23:49:11.560Z,2.94
